Airfield :
LOGIN :

Register | Disclaimer

   EN    FR    IT 

 










Legend :    VFR   Marginal VFR   IFR   Intensive IFR   Very Intensive IFR
Visi :
Ceiling :
>= 8 km
>= 3000ft
5 to 8 km
1000 to 3000 ft
1500m to 5 km
500 to 1000 ft
800 to 1500m
200 to 500 ft
< 800m
< 200 ft
Symbols :   Thunderstorms  Fog  Heavy snow  Heavy precipitations  Wind > 20 kt
SIGMETs :     Misc.  Thunderstorms  Icing  Turbulence  Mountain Waves  Volcanic Ashes







- Airport Elevation : 106 ft
- IATA code : NRN


EDLV - Weeze

CURRENT METAR :
  • 251150Z 30008KT 260V020 9999 BKN042 08/M00 Q1009

EXPIRED METARs :
  • 251120Z 29012G24KT 260V350 9999 -SHRA SCT030TCU 07/01 Q1009
  • 251050Z 27014G25KT 250V310 9000 -SHRA SCT024TCU 07/02 Q1008
  • 251020Z 26019KT 9999 FEW021 BKN044 08/03 Q1008
  • 250950Z 27019KT 250V310 9999 VCSH BKN029 08/02 Q1008
  • 250920Z 26020KT 9999 BKN029 08/01 Q1007

TAF TAF EDLV
Valid from the 25 at 12:00 until the 26 at 12:00 UTC


251100Z 2512/2612 27015KT 9999 SCT030
TEMPO 2512/2517 28015G25KT
PROB30
TEMPO 2512/2516 28020G30KT 4500 SHRAGS BKN012CB
BECMG 2517/2520 30005KT
BECMG 2520/2523 VRB03KT
BECMG 2606/2609 30005KT
No reported NOTAMs for that airfield.



MET'MAP, your aeronautical weather chart ! - Copyright ORBIFLY December 2007 - Disclaimer

ORBIFLY MET'MAP TEAM :

Programming & Development : Alexandra Zaïnal
Concept & Development : Baudouin d'Aumeries
Co-Development & Prog : Marc-Olivier Méhu
Technical & hardware support : Manuel Goepfert

Contact : metmap@orbifly.com




SOURCES & CREDITS :

   NOAA